Fontana, California
Current Conditions -  °F | °C
As of 10:53 PM on Friday 28 Nov 2014 (Local Time) from KONT Reporting Station
Clear Clear  
Wind Chill: 59°   Ceiling: Unl
Heat Index: 59°   Visibility: 10mi
Dew Point: 34°   Wind: 0mph
Humidity: 39%   Direction: NA
Pressure: 29.92"   Gusts: NA
Location:  34.1°N, 117.43°W
Report Text: KONT 290653Z 00000KT 10SM CLR 15/01 A2992 RMK AO2 SLP121 T01500011
Loading
Personal Weather Stations






























Interactive Weather Map New forecast layout! Learn more

10-Day Weather Forecast

Advertisements
Track Severe Weather on mobile